Lishui, China
Current Conditions -  °F | °C
As of 1:00 PM on Tuesday 23 Dec 2014 (Local Time) from ZSHC Reporting Station
Clear Clear  
Wind Chill: 57°   Ceiling: Unl
Heat Index: 57°   Visibility: 6mi
Dew Point: 18°   Wind: 7mph
Humidity: 21%   Direction: 190°S
Pressure: 30.18"   Gusts: NA
Location:  28.46°N, 119.91°E
Report Text: ZSHC 230500Z 19003MPS 150V240 CAVOK 14/M08 Q1022 NOSIG
Loading
Personal Weather Stations






























Interactive Weather Map New forecast layout! Learn more

10-Day Weather Forecast

Advertisements
Track Severe Weather on mobile